Check out our new PWSWeather beta!
PWSweather.com
Personal Weather Stations
Station Observations
KOMOKA
Komoka Village, Komoka, ON N0L IRO

Komoka VillageKomoka, ON N0L IRO

Lat: 42.9542444, Lon: -81.4348861

Elevation: 805

Station Type: Davis Vantage Pro 2

www.komokaweather.com

High Low Average
Temperature 39.6°F4.2°C 31.3°F-0.4°C 34.4°F1.3°C
Dew Point 27.5°F-2.5°C 21.7°F-5.7°C 24.1°F-4.4°C
Winds 15.0 mph 24.1 kmh Calm Calm 5.0 mph N8.0 kmh N
Wind Gusts 35.0 mph56.3 kmh -- 13.0 mph20.9 kmh
Humidity 75% 51% 66%
Pressure 30.20 in1022.7 mb 29.67 in1004.7 mb -
Precipitation 0.20 in5.1 mm - -
Hour Temp Dew Point Humidity Winds Wind Gusts Pressure Precip Precip Rate Daily Precip Total
12:05 AM 35.2°F1.8°C 27.5°F-2.5°C 73% 13.0 mph N20.9 kmh N 29.0 mph46.7 kmh 29.67 in1004.7 mb 0.03 in0.8 mm 0.36 in9.1 mm 0.03 in0.8 mm
12:12 AM 34.9°F1.6°C 27.1°F-2.7°C 73% 15.0 mph N24.1 kmh N 29.0 mph46.7 kmh 29.67 in1004.7 mb 0.04 in1.0 mm 0.09 in2.3 mm 0.04 in1.0 mm
12:19 AM 34.9°F1.6°C 27.0°F-2.8°C 73% 15.0 mph N24.1 kmh N 29.0 mph46.7 kmh 29.68 in1005.1 mb 0.03 in0.8 mm 0.00 in0.0 mm 0.04 in1.0 mm
12:26 AM 34.7°F1.5°C 27.0°F-2.8°C 73% 13.0 mph N20.9 kmh N 29.0 mph46.7 kmh 29.69 in1005.4 mb 0.04 in1.0 mm 0.09 in2.3 mm 0.05 in1.3 mm
12:33 AM 34.3°F1.3°C 26.6°F-3.0°C 73% 12.0 mph N19.3 kmh N 35.0 mph56.3 kmh 29.70 in1005.8 mb 0.03 in0.8 mm 0.00 in0.0 mm 0.05 in1.3 mm
12:40 AM 34.2°F1.2°C 26.8°F-2.9°C 74% 9.0 mph N14.5 kmh N 35.0 mph56.3 kmh 29.70 in1005.8 mb 0.02 in0.5 mm 0.00 in0.0 mm 0.05 in1.3 mm
12:47 AM 34.2°F1.2°C 26.4°F-3.1°C 73% 11.0 mph N17.7 kmh N 25.0 mph40.2 kmh 29.71 in1006.1 mb 0.03 in0.8 mm 0.09 in2.3 mm 0.06 in1.5 mm
12:54 AM 34.2°F1.2°C 26.8°F-2.9°C 74% 12.0 mph N19.3 kmh N 25.0 mph40.2 kmh 29.72 in1006.4 mb 0.02 in0.5 mm 0.00 in0.0 mm 0.06 in1.5 mm
01:01 AM 34.2°F1.2°C 26.8°F-2.9°C 74% 12.0 mph N19.3 kmh N 29.0 mph46.7 kmh 29.73 in1006.8 mb 0.02 in0.5 mm 0.00 in0.0 mm 0.06 in1.5 mm
01:08 AM 34.0°F1.1°C 26.2°F-3.2°C 73% 11.0 mph N17.7 kmh N 23.0 mph37.0 kmh 29.74 in1007.1 mb 0.02 in0.5 mm 0.00 in0.0 mm 0.06 in1.5 mm
01:15 AM 33.6°F0.9°C 26.2°F-3.2°C 74% 9.0 mph N14.5 kmh N 24.0 mph38.6 kmh 29.74 in1007.1 mb 0.02 in0.5 mm 0.00 in0.0 mm 0.06 in1.5 mm
01:22 AM 33.4°F0.8°C 26.1°F-3.3°C 74% 11.0 mph N17.7 kmh N 24.0 mph38.6 kmh 29.75 in1007.5 mb 0.02 in0.5 mm 0.00 in0.0 mm 0.06 in1.5 mm
01:29 AM 33.4°F0.8°C 26.1°F-3.3°C 74% 12.0 mph N19.3 kmh N 31.0 mph49.9 kmh 29.75 in1007.5 mb 0.02 in0.5 mm 0.00 in0.0 mm 0.06 in1.5 mm
01:36 AM 33.4°F0.8°C 26.1°F-3.3°C 74% 11.0 mph N17.7 kmh N 28.0 mph45.1 kmh 29.76 in1007.8 mb 0.02 in0.5 mm 0.00 in0.0 mm 0.07 in1.8 mm
01:43 AM 33.3°F0.7°C 25.9°F-3.4°C 74% 9.0 mph N14.5 kmh N 23.0 mph37.0 kmh 29.76 in1007.8 mb 0.02 in0.5 mm 0.00 in0.0 mm 0.07 in1.8 mm
01:50 AM 33.1°F0.6°C 25.7°F-3.5°C 74% 9.0 mph N14.5 kmh N 24.0 mph38.6 kmh 29.77 in1008.1 mb 0.02 in0.5 mm 0.00 in0.0 mm 0.07 in1.8 mm
01:57 AM 33.3°F0.7°C 25.9°F-3.4°C 74% 8.0 mph N12.9 kmh N 24.0 mph38.6 kmh 29.78 in1008.5 mb 0.02 in0.5 mm 0.00 in0.0 mm 0.07 in1.8 mm
02:04 AM 33.6°F0.9°C 26.2°F-3.2°C 74% 8.0 mph N12.9 kmh N 24.0 mph38.6 kmh 29.78 in1008.5 mb 0.02 in0.5 mm 0.00 in0.0 mm 0.08 in2.0 mm
02:11 AM 33.3°F0.7°C 25.9°F-3.4°C 74% 9.0 mph N14.5 kmh N 24.0 mph38.6 kmh 29.79 in1008.8 mb 0.03 in0.8 mm 0.09 in2.3 mm 0.09 in2.3 mm
02:18 AM 32.9°F0.5°C 25.5°F-3.6°C 74% 8.0 mph N12.9 kmh N 16.0 mph25.7 kmh 29.80 in1009.1 mb 0.03 in0.8 mm 0.00 in0.0 mm 0.09 in2.3 mm
02:25 AM 32.7°F0.4°C 25.7°F-3.5°C 75% 7.0 mph N11.3 kmh N 16.0 mph25.7 kmh 29.80 in1009.1 mb 0.02 in0.5 mm 0.00 in0.0 mm 0.09 in2.3 mm
02:32 AM 32.7°F0.4°C 25.7°F-3.5°C 75% 7.0 mph N11.3 kmh N 19.0 mph30.6 kmh 29.80 in1009.1 mb 0.02 in0.5 mm 0.00 in0.0 mm 0.09 in2.3 mm
02:39 AM 32.7°F0.4°C 25.7°F-3.5°C 75% 9.0 mph N14.5 kmh N 21.0 mph33.8 kmh 29.81 in1009.5 mb 0.02 in0.5 mm 0.00 in0.0 mm 0.09 in2.3 mm
02:46 AM 32.7°F0.4°C 25.7°F-3.5°C 75% 11.0 mph N17.7 kmh N 20.0 mph32.2 kmh 29.82 in1009.8 mb 0.02 in0.5 mm 0.00 in0.0 mm 0.09 in2.3 mm
02:53 AM 32.7°F0.4°C 25.7°F-3.5°C 75% 9.0 mph N14.5 kmh N 21.0 mph33.8 kmh 29.82 in1009.8 mb 0.02 in0.5 mm 0.00 in0.0 mm 0.09 in2.3 mm
03:00 AM 32.5°F0.3°C 25.5°F-3.6°C 75% 8.0 mph N12.9 kmh N 20.0 mph32.2 kmh 29.82 in1009.8 mb 0.01 in0.3 mm 0.00 in0.0 mm 0.09 in2.3 mm
03:07 AM 32.5°F0.3°C 25.5°F-3.6°C 75% 8.0 mph N12.9 kmh N 20.0 mph32.2 kmh 29.83 in1010.2 mb 0.01 in0.3 mm 0.00 in0.0 mm 0.09 in2.3 mm
03:14 AM 32.5°F0.3°C 25.5°F-3.6°C 75% 7.0 mph N11.3 kmh N 15.0 mph24.1 kmh 29.84 in1010.5 mb 0.00 in0.0 mm 0.00 in0.0 mm 0.09 in2.3 mm
03:21 AM 32.5°F0.3°C 25.5°F-3.6°C 75% 7.0 mph N11.3 kmh N 13.0 mph20.9 kmh 29.84 in1010.5 mb 0.00 in0.0 mm 0.00 in0.0 mm 0.09 in2.3 mm
03:28 AM 32.7°F0.4°C 25.7°F-3.5°C 75% 7.0 mph N11.3 kmh N 17.0 mph27.4 kmh 29.84 in1010.5 mb 0.00 in0.0 mm 0.00 in0.0 mm 0.09 in2.3 mm
03:35 AM 32.9°F0.5°C 25.9°F-3.4°C 75% 9.0 mph N14.5 kmh N 17.0 mph27.4 kmh 29.84 in1010.5 mb 0.00 in0.0 mm 0.00 in0.0 mm 0.09 in2.3 mm
03:42 AM 33.1°F0.6°C 25.9°F-3.4°C 75% 8.0 mph N12.9 kmh N 19.0 mph30.6 kmh 29.85 in1010.8 mb 0.00 in0.0 mm 0.00 in0.0 mm 0.09 in2.3 mm
03:49 AM 33.3°F0.7°C 26.1°F-3.3°C 75% 8.0 mph N12.9 kmh N 19.0 mph30.6 kmh 29.86 in1011.2 mb 0.00 in0.0 mm 0.00 in0.0 mm 0.09 in2.3 mm
03:56 AM 33.3°F0.7°C 26.2°F-3.2°C 75% 8.0 mph N12.9 kmh N 17.0 mph27.4 kmh 29.87 in1011.5 mb 0.00 in0.0 mm 0.00 in0.0 mm 0.09 in2.3 mm
04:03 AM 33.4°F0.8°C 26.1°F-3.3°C 74% 8.0 mph N12.9 kmh N 19.0 mph30.6 kmh 29.87 in1011.5 mb 0.00 in0.0 mm 0.00 in0.0 mm 0.09 in2.3 mm
04:10 AM 33.4°F0.8°C 26.1°F-3.3°C 74% 8.0 mph N12.9 kmh N 20.0 mph32.2 kmh 29.87 in1011.5 mb 0.00 in0.0 mm 0.00 in0.0 mm 0.09 in2.3 mm
04:17 AM 33.6°F0.9°C 25.9°F-3.4°C 73% 9.0 mph N14.5 kmh N 23.0 mph37.0 kmh 29.89 in1012.2 mb 0.00 in0.0 mm 0.00 in0.0 mm 0.09 in2.3 mm
04:24 AM 33.8°F1.0°C 26.1°F-3.3°C 73% 9.0 mph N14.5 kmh N 20.0 mph32.2 kmh 29.89 in1012.2 mb 0.00 in0.0 mm 0.00 in0.0 mm 0.09 in2.3 mm
04:31 AM 34.0°F1.1°C 25.9°F-3.4°C 72% 9.0 mph N14.5 kmh N 17.0 mph27.4 kmh 29.90 in1012.5 mb 0.00 in0.0 mm 0.00 in0.0 mm 0.09 in2.3 mm
04:38 AM 34.0°F1.1°C 25.9°F-3.4°C 72% 8.0 mph N12.9 kmh N 19.0 mph30.6 kmh 29.91 in1012.9 mb 0.01 in0.3 mm 0.09 in2.3 mm 0.09 in2.3 mm
04:45 AM 33.8°F1.0°C 25.7°F-3.5°C 72% 7.0 mph N11.3 kmh N 19.0 mph30.6 kmh 29.92 in1013.2 mb 0.01 in0.3 mm 0.00 in0.0 mm 0.09 in2.3 mm
04:52 AM 33.6°F0.9°C 25.7°F-3.5°C 72% 9.0 mph N14.5 kmh N 20.0 mph32.2 kmh 29.92 in1013.2 mb 0.01 in0.3 mm 0.00 in0.0 mm 0.09 in2.3 mm
04:59 AM 33.6°F0.9°C 25.2°F-3.8°C 71% 8.0 mph N12.9 kmh N 20.0 mph32.2 kmh 29.92 in1013.2 mb 0.02 in0.5 mm 0.09 in2.3 mm 0.10 in2.5 mm
05:06 AM 33.6°F0.9°C 25.2°F-3.8°C 71% 8.0 mph N12.9 kmh N 21.0 mph33.8 kmh 29.92 in1013.2 mb 0.02 in0.5 mm 0.00 in0.0 mm 0.10 in2.5 mm
05:13 AM 33.4°F0.8°C 25.2°F-3.8°C 71% 8.0 mph N12.9 kmh N 21.0 mph33.8 kmh 29.93 in1013.5 mb 0.02 in0.5 mm 0.00 in0.0 mm 0.10 in2.5 mm
05:20 AM 33.6°F0.9°C 25.2°F-3.8°C 71% 8.0 mph N12.9 kmh N 19.0 mph30.6 kmh 29.93 in1013.5 mb 0.02 in0.5 mm 0.00 in0.0 mm 0.10 in2.5 mm
05:27 AM 33.6°F0.9°C 25.2°F-3.8°C 71% 8.0 mph N12.9 kmh N 21.0 mph33.8 kmh 29.94 in1013.9 mb 0.02 in0.5 mm 0.00 in0.0 mm 0.11 in2.8 mm
05:34 AM 33.4°F0.8°C 25.2°F-3.8°C 71% 7.0 mph N11.3 kmh N 20.0 mph32.2 kmh 29.95 in1014.2 mb 0.02 in0.5 mm 0.00 in0.0 mm 0.11 in2.8 mm
05:41 AM 33.6°F0.9°C 25.2°F-3.8°C 71% 7.0 mph N11.3 kmh N 23.0 mph37.0 kmh 29.96 in1014.6 mb 0.02 in0.5 mm 0.00 in0.0 mm 0.11 in2.8 mm
05:48 AM 33.6°F0.9°C 25.2°F-3.8°C 71% 7.0 mph N11.3 kmh N 20.0 mph32.2 kmh 29.96 in1014.6 mb 0.02 in0.5 mm 0.00 in0.0 mm 0.11 in2.8 mm
05:55 AM 33.4°F0.8°C 24.8°F-4.0°C 70% 7.0 mph N11.3 kmh N 15.0 mph24.1 kmh 29.96 in1014.6 mb 0.01 in0.3 mm 0.00 in0.0 mm 0.11 in2.8 mm
06:02 AM 33.4°F0.8°C 24.8°F-4.0°C 70% 7.0 mph N11.3 kmh N 15.0 mph24.1 kmh 29.97 in1014.9 mb 0.02 in0.5 mm 0.01 in0.3 mm 0.12 in3.0 mm
06:09 AM 33.4°F0.8°C 24.8°F-4.0°C 70% 7.0 mph N11.3 kmh N 20.0 mph32.2 kmh 29.98 in1015.2 mb 0.02 in0.5 mm 0.00 in0.0 mm 0.12 in3.0 mm
06:16 AM 33.4°F0.8°C 24.8°F-4.0°C 70% 5.0 mph N8.0 kmh N 17.0 mph27.4 kmh 29.98 in1015.2 mb 0.02 in0.5 mm 0.00 in0.0 mm 0.12 in3.0 mm
06:23 AM 33.4°F0.8°C 24.6°F-4.1°C 70% 7.0 mph N11.3 kmh N 21.0 mph33.8 kmh 29.99 in1015.6 mb 0.02 in0.5 mm 0.00 in0.0 mm 0.12 in3.0 mm
06:30 AM 33.4°F0.8°C 24.6°F-4.1°C 70% 5.0 mph N8.0 kmh N 19.0 mph30.6 kmh 30.00 in1015.9 mb 0.01 in0.3 mm 0.00 in0.0 mm 0.12 in3.0 mm
06:37 AM 33.3°F0.7°C 24.6°F-4.1°C 70% 8.0 mph N12.9 kmh N 19.0 mph30.6 kmh 30.00 in1015.9 mb 0.01 in0.3 mm 0.00 in0.0 mm 0.12 in3.0 mm
06:44 AM 33.3°F0.7°C 24.6°F-4.1°C 70% 7.0 mph N11.3 kmh N 20.0 mph32.2 kmh 30.00 in1015.9 mb 0.01 in0.3 mm 0.00 in0.0 mm 0.12 in3.0 mm
06:51 AM 33.3°F0.7°C 24.6°F-4.1°C 70% 7.0 mph N11.3 kmh N 20.0 mph32.2 kmh 30.01 in1016.3 mb 0.01 in0.3 mm 0.00 in0.0 mm 0.12 in3.0 mm
06:58 AM 33.3°F0.7°C 24.1°F-4.4°C 69% 8.0 mph N12.9 kmh N 20.0 mph32.2 kmh 30.01 in1016.3 mb 0.01 in0.3 mm 0.00 in0.0 mm 0.12 in3.0 mm
07:05 AM 33.3°F0.7°C 24.1°F-4.4°C 69% 7.0 mph N11.3 kmh N 15.0 mph24.1 kmh 30.02 in1016.6 mb 0.01 in0.3 mm 0.00 in0.0 mm 0.13 in3.3 mm
07:12 AM 33.1°F0.6°C 24.1°F-4.4°C 69% 8.0 mph N12.9 kmh N 25.0 mph40.2 kmh 30.02 in1016.6 mb 0.01 in0.3 mm 0.00 in0.0 mm 0.13 in3.3 mm
07:19 AM 33.1°F0.6°C 24.1°F-4.4°C 69% 8.0 mph N12.9 kmh N 25.0 mph40.2 kmh 30.03 in1016.9 mb 0.01 in0.3 mm 0.00 in0.0 mm 0.13 in3.3 mm
07:26 AM 33.1°F0.6°C 24.1°F-4.4°C 69% 8.0 mph N12.9 kmh N 17.0 mph27.4 kmh 30.04 in1017.3 mb 0.01 in0.3 mm 0.00 in0.0 mm 0.13 in3.3 mm
07:33 AM 33.1°F0.6°C 23.9°F-4.5°C 69% 5.0 mph N8.0 kmh N 16.0 mph25.7 kmh 30.04 in1017.3 mb 0.01 in0.3 mm 0.00 in0.0 mm 0.13 in3.3 mm
07:40 AM 33.1°F0.6°C 23.9°F-4.5°C 69% 7.0 mph N11.3 kmh N 23.0 mph37.0 kmh 30.04 in1017.3 mb 0.01 in0.3 mm 0.00 in0.0 mm 0.13 in3.3 mm
07:47 AM 33.1°F0.6°C 23.9°F-4.5°C 69% 7.0 mph N11.3 kmh N 15.0 mph24.1 kmh 30.05 in1017.6 mb 0.01 in0.3 mm 0.00 in0.0 mm 0.13 in3.3 mm
07:54 AM 32.9°F0.5°C 23.9°F-4.5°C 69% 5.0 mph N8.0 kmh N 16.0 mph25.7 kmh 30.05 in1017.6 mb 0.01 in0.3 mm 0.00 in0.0 mm 0.13 in3.3 mm
08:01 AM 32.9°F0.5°C 23.5°F-4.7°C 68% 7.0 mph N11.3 kmh N 16.0 mph25.7 kmh 30.05 in1017.6 mb 0.01 in0.3 mm 0.00 in0.0 mm 0.13 in3.3 mm
08:08 AM 33.1°F0.6°C 23.9°F-4.5°C 69% 5.0 mph N8.0 kmh N 21.0 mph33.8 kmh 30.06 in1017.9 mb 0.00 in0.0 mm 0.00 in0.0 mm 0.13 in3.3 mm
08:15 AM 33.1°F0.6°C 23.5°F-4.7°C 68% 7.0 mph N11.3 kmh N 21.0 mph33.8 kmh 30.07 in1018.3 mb 0.00 in0.0 mm 0.00 in0.0 mm 0.13 in3.3 mm
08:22 AM 33.1°F0.6°C 23.5°F-4.7°C 68% 7.0 mph N11.3 kmh N 21.0 mph33.8 kmh 30.07 in1018.3 mb 0.00 in0.0 mm 0.00 in0.0 mm 0.13 in3.3 mm
08:29 AM 33.1°F0.6°C 23.5°F-4.7°C 68% 5.0 mph N8.0 kmh N 17.0 mph27.4 kmh 30.07 in1018.3 mb 0.00 in0.0 mm 0.00 in0.0 mm 0.13 in3.3 mm
08:36 AM 33.1°F0.6°C 23.4°F-4.8°C 67% 7.0 mph N11.3 kmh N 17.0 mph27.4 kmh 30.07 in1018.3 mb 0.00 in0.0 mm 0.00 in0.0 mm 0.13 in3.3 mm
08:43 AM 33.1°F0.6°C 23.4°F-4.8°C 67% 7.0 mph N11.3 kmh N 17.0 mph27.4 kmh 30.08 in1018.6 mb 0.01 in0.3 mm 0.09 in2.3 mm 0.13 in3.3 mm
08:50 AM 33.3°F0.7°C 23.4°F-4.8°C 67% 7.0 mph N11.3 kmh N 19.0 mph30.6 kmh 30.09 in1019.0 mb 0.01 in0.3 mm 0.00 in0.0 mm 0.13 in3.3 mm
08:57 AM 33.3°F0.7°C 23.4°F-4.8°C 67% 7.0 mph N11.3 kmh N 17.0 mph27.4 kmh 30.09 in1019.0 mb 0.01 in0.3 mm 0.00 in0.0 mm 0.13 in3.3 mm
09:04 AM 33.3°F0.7°C 23.4°F-4.8°C 67% 5.0 mph N8.0 kmh N 17.0 mph27.4 kmh 30.09 in1019.0 mb 0.01 in0.3 mm 0.00 in0.0 mm 0.13 in3.3 mm
09:11 AM 33.3°F0.7°C 23.2°F-4.9°C 66% 7.0 mph N11.3 kmh N 20.0 mph32.2 kmh 30.10 in1019.3 mb 0.01 in0.3 mm 0.00 in0.0 mm 0.13 in3.3 mm
09:18 AM 33.4°F0.8°C 23.2°F-4.9°C 66% 5.0 mph N8.0 kmh N 16.0 mph25.7 kmh 30.10 in1019.3 mb 0.01 in0.3 mm 0.00 in0.0 mm 0.13 in3.3 mm
09:25 AM 33.4°F0.8°C 23.4°F-4.8°C 66% 7.0 mph N11.3 kmh N 17.0 mph27.4 kmh 30.10 in1019.3 mb 0.01 in0.3 mm 0.00 in0.0 mm 0.14 in3.6 mm
09:32 AM 33.6°F0.9°C 23.0°F-5.0°C 65% 7.0 mph N11.3 kmh N 20.0 mph32.2 kmh 30.11 in1019.6 mb 0.02 in0.5 mm 0.09 in2.3 mm 0.14 in3.6 mm
09:39 AM 33.6°F0.9°C 23.2°F-4.9°C 65% 7.0 mph N11.3 kmh N 17.0 mph27.4 kmh 30.11 in1019.6 mb 0.01 in0.3 mm 0.00 in0.0 mm 0.14 in3.6 mm
09:46 AM 33.8°F1.0°C 23.4°F-4.8°C 65% 7.0 mph N11.3 kmh N 17.0 mph27.4 kmh 30.12 in1020.0 mb 0.01 in0.3 mm 0.00 in0.0 mm 0.15 in3.8 mm
09:53 AM 34.0°F1.1°C 23.0°F-5.0°C 64% 8.0 mph N12.9 kmh N 19.0 mph30.6 kmh 30.11 in1019.6 mb 0.02 in0.5 mm 0.09 in2.3 mm 0.15 in3.8 mm
10:00 AM 34.0°F1.1°C 23.2°F-4.9°C 64% 7.0 mph N11.3 kmh N 19.0 mph30.6 kmh 30.12 in1020.0 mb 0.02 in0.5 mm 0.00 in0.0 mm 0.15 in3.8 mm
10:07 AM 34.2°F1.2°C 22.8°F-5.1°C 63% 7.0 mph N11.3 kmh N 20.0 mph32.2 kmh 30.12 in1020.0 mb 0.02 in0.5 mm 0.00 in0.0 mm 0.16 in4.1 mm
10:14 AM 34.2°F1.2°C 22.5°F-5.3°C 62% 8.0 mph N12.9 kmh N 20.0 mph32.2 kmh 30.13 in1020.3 mb 0.02 in0.5 mm 0.00 in0.0 mm 0.16 in4.1 mm
10:21 AM 34.3°F1.3°C 22.6°F-5.2°C 62% 8.0 mph N12.9 kmh N 21.0 mph33.8 kmh 30.13 in1020.3 mb 0.02 in0.5 mm 0.00 in0.0 mm 0.16 in4.1 mm
10:28 AM 34.5°F1.4°C 22.8°F-5.1°C 62% 7.0 mph N11.3 kmh N 19.0 mph30.6 kmh 30.14 in1020.7 mb 0.02 in0.5 mm 0.00 in0.0 mm 0.17 in4.3 mm
10:35 AM 34.5°F1.4°C 22.8°F-5.1°C 62% 7.0 mph N11.3 kmh N 21.0 mph33.8 kmh 30.14 in1020.7 mb 0.02 in0.5 mm 0.00 in0.0 mm 0.17 in4.3 mm
10:42 AM 34.7°F1.5°C 23.0°F-5.0°C 62% 7.0 mph N11.3 kmh N 16.0 mph25.7 kmh 30.14 in1020.7 mb 0.02 in0.5 mm 0.00 in0.0 mm 0.17 in4.3 mm
10:49 AM 34.7°F1.5°C 22.3°F-5.4°C 60% 7.0 mph N11.3 kmh N 17.0 mph27.4 kmh 30.14 in1020.7 mb 0.02 in0.5 mm 0.00 in0.0 mm 0.17 in4.3 mm
10:56 AM 34.9°F1.6°C 22.3°F-5.4°C 60% 8.0 mph N12.9 kmh N 20.0 mph32.2 kmh 30.14 in1020.7 mb 0.02 in0.5 mm 0.00 in0.0 mm 0.17 in4.3 mm
11:03 AM 35.1°F1.7°C 22.5°F-5.3°C 60% 8.0 mph N12.9 kmh N 20.0 mph32.2 kmh 30.15 in1021.0 mb 0.02 in0.5 mm 0.00 in0.0 mm 0.17 in4.3 mm
11:10 AM 35.2°F1.8°C 23.2°F-4.9°C 61% 7.0 mph N11.3 kmh N 19.0 mph30.6 kmh 30.14 in1020.7 mb 0.02 in0.5 mm 0.00 in0.0 mm 0.18 in4.6 mm
11:17 AM 35.4°F1.9°C 23.0°F-5.0°C 60% 5.0 mph N8.0 kmh N 13.0 mph20.9 kmh 30.15 in1021.0 mb 0.02 in0.5 mm 0.00 in0.0 mm 0.18 in4.6 mm
11:24 AM 35.2°F1.8°C 22.5°F-5.3°C 59% 7.0 mph N11.3 kmh N 15.0 mph24.1 kmh 30.15 in1021.0 mb 0.02 in0.5 mm 0.00 in0.0 mm 0.18 in4.6 mm
11:38 AM 35.4°F1.9°C 22.5°F-5.3°C 59% 7.0 mph N11.3 kmh N 15.0 mph24.1 kmh 30.15 in1021.0 mb 0.02 in0.5 mm 0.00 in0.0 mm 0.19 in4.8 mm
11:45 AM 35.6°F2.0°C 22.3°F-5.4°C 58% 7.0 mph N11.3 kmh N 13.0 mph20.9 kmh 30.15 in1021.0 mb 0.02 in0.5 mm 0.00 in0.0 mm 0.19 in4.8 mm
11:52 AM 35.4°F1.9°C 22.1°F-5.5°C 58% 7.0 mph N11.3 kmh N 16.0 mph25.7 kmh 30.15 in1021.0 mb 0.02 in0.5 mm 0.00 in0.0 mm 0.19 in4.8 mm
12:02 PM 35.8°F2.1°C 22.8°F-5.1°C 59% 5.0 mph N8.0 kmh N 16.0 mph25.7 kmh 30.15 in1021.0 mb 0.02 in0.5 mm 0.00 in0.0 mm 0.20 in5.1 mm
12:06 PM 35.8°F2.1°C 22.8°F-5.1°C 59% 5.0 mph N8.0 kmh N 17.0 mph27.4 kmh 30.15 in1021.0 mb 0.02 in0.5 mm 0.00 in0.0 mm 0.20 in5.1 mm
12:17 PM 36.0°F2.2°C 22.1°F-5.5°C 57% 7.0 mph N11.3 kmh N 15.0 mph24.1 kmh 30.15 in1021.0 mb 0.02 in0.5 mm 0.00 in0.0 mm 0.20 in5.1 mm
12:24 PM 36.7°F2.6°C 22.8°F-5.1°C 57% 7.0 mph N11.3 kmh N 17.0 mph27.4 kmh 30.15 in1021.0 mb 0.01 in0.3 mm 0.00 in0.0 mm 0.20 in5.1 mm
12:31 PM 36.9°F2.7°C 22.1°F-5.5°C 55% 7.0 mph N11.3 kmh N 19.0 mph30.6 kmh 30.15 in1021.0 mb 0.01 in0.3 mm 0.00 in0.0 mm 0.20 in5.1 mm
12:38 PM 37.8°F3.2°C 22.6°F-5.2°C 54% 8.0 mph N12.9 kmh N 19.0 mph30.6 kmh 30.15 in1021.0 mb 0.01 in0.3 mm 0.00 in0.0 mm 0.20 in5.1 mm
12:45 PM 37.6°F3.1°C 22.8°F-5.1°C 55% 8.0 mph N12.9 kmh N 17.0 mph27.4 kmh 30.15 in1021.0 mb 0.01 in0.3 mm 0.00 in0.0 mm 0.20 in5.1 mm
12:52 PM 38.5°F3.6°C 22.8°F-5.1°C 53% 7.0 mph N11.3 kmh N 16.0 mph25.7 kmh 30.15 in1021.0 mb 0.00 in0.0 mm 0.00 in0.0 mm 0.20 in5.1 mm
12:59 PM 38.1°F3.4°C 21.9°F-5.6°C 52% 7.0 mph N11.3 kmh N 16.0 mph25.7 kmh 30.15 in1021.0 mb 0.00 in0.0 mm 0.00 in0.0 mm 0.20 in5.1 mm
01:06 PM 37.6°F3.1°C 21.9°F-5.6°C 53% 5.0 mph N8.0 kmh N 13.0 mph20.9 kmh 30.15 in1021.0 mb 0.01 in0.3 mm 0.01 in0.3 mm 0.20 in5.1 mm
01:13 PM 37.8°F3.2°C 23.0°F-5.0°C 55% 4.0 mph N6.4 kmh N 11.0 mph17.7 kmh 30.15 in1021.0 mb 0.01 in0.3 mm 0.00 in0.0 mm 0.20 in5.1 mm
01:20 PM 38.5°F3.6°C 21.7°F-5.7°C 51% 7.0 mph N11.3 kmh N 20.0 mph32.2 kmh 30.15 in1021.0 mb 0.01 in0.3 mm 0.00 in0.0 mm 0.20 in5.1 mm
01:27 PM 39.6°F4.2°C 22.8°F-5.1°C 51% 7.0 mph N11.3 kmh N 16.0 mph25.7 kmh 30.16 in1021.3 mb 0.01 in0.3 mm 0.00 in0.0 mm 0.20 in5.1 mm
01:34 PM 38.8°F3.8°C 22.8°F-5.1°C 52% 5.0 mph N8.0 kmh N 15.0 mph24.1 kmh 30.16 in1021.3 mb 0.01 in0.3 mm 0.00 in0.0 mm 0.20 in5.1 mm
01:41 PM 38.5°F3.6°C 22.8°F-5.1°C 53% 5.0 mph N8.0 kmh N 13.0 mph20.9 kmh 30.16 in1021.3 mb 0.01 in0.3 mm 0.00 in0.0 mm 0.20 in5.1 mm
01:48 PM 37.9°F3.3°C 22.3°F-5.4°C 53% 5.0 mph N8.0 kmh N 12.0 mph19.3 kmh 30.16 in1021.3 mb 0.01 in0.3 mm 0.00 in0.0 mm 0.20 in5.1 mm
01:55 PM 38.1°F3.4°C 22.5°F-5.3°C 53% 4.0 mph N6.4 kmh N 13.0 mph20.9 kmh 30.16 in1021.3 mb 0.01 in0.3 mm 0.00 in0.0 mm 0.20 in5.1 mm
02:02 PM 38.1°F3.4°C 23.0°F-5.0°C 54% 4.0 mph N6.4 kmh N 9.0 mph14.5 kmh 30.16 in1021.3 mb 0.01 in0.3 mm 0.00 in0.0 mm 0.20 in5.1 mm
02:09 PM 37.9°F3.3°C 23.2°F-4.9°C 55% 4.0 mph N6.4 kmh N 11.0 mph17.7 kmh 30.16 in1021.3 mb 0.00 in0.0 mm 0.00 in0.0 mm 0.20 in5.1 mm
02:16 PM 37.9°F3.3°C 23.2°F-4.9°C 55% 4.0 mph N6.4 kmh N 13.0 mph20.9 kmh 30.16 in1021.3 mb 0.00 in0.0 mm 0.00 in0.0 mm 0.20 in5.1 mm
02:23 PM 37.8°F3.2°C 23.0°F-5.0°C 55% 4.0 mph N6.4 kmh N 13.0 mph20.9 kmh 30.16 in1021.3 mb 0.00 in0.0 mm 0.00 in0.0 mm 0.20 in5.1 mm
02:30 PM 37.8°F3.2°C 23.5°F-4.7°C 56% 4.0 mph N6.4 kmh N 16.0 mph25.7 kmh 30.16 in1021.3 mb 0.00 in0.0 mm 0.00 in0.0 mm 0.20 in5.1 mm
02:37 PM 37.8°F3.2°C 23.5°F-4.7°C 56% 5.0 mph N8.0 kmh N 16.0 mph25.7 kmh 30.17 in1021.7 mb 0.00 in0.0 mm 0.00 in0.0 mm 0.20 in5.1 mm
02:44 PM 38.1°F3.4°C 23.7°F-4.6°C 56% 5.0 mph N8.0 kmh N 13.0 mph20.9 kmh 30.17 in1021.7 mb 0.00 in0.0 mm 0.00 in0.0 mm 0.20 in5.1 mm
02:51 PM 38.5°F3.6°C 23.5°F-4.7°C 55% 5.0 mph N8.0 kmh N 12.0 mph19.3 kmh 30.17 in1021.7 mb 0.00 in0.0 mm 0.00 in0.0 mm 0.20 in5.1 mm
02:58 PM 38.3°F3.5°C 23.5°F-4.7°C 55% 5.0 mph N8.0 kmh N 13.0 mph20.9 kmh 30.17 in1021.7 mb 0.00 in0.0 mm 0.00 in0.0 mm 0.20 in5.1 mm
03:05 PM 38.5°F3.6°C 22.8°F-5.1°C 53% 4.0 mph N6.4 kmh N 15.0 mph24.1 kmh 30.17 in1021.7 mb 0.00 in0.0 mm 0.00 in0.0 mm 0.20 in5.1 mm
03:12 PM 38.8°F3.8°C 24.1°F-4.4°C 55% 5.0 mph N8.0 kmh N 15.0 mph24.1 kmh 30.17 in1021.7 mb 0.00 in0.0 mm 0.00 in0.0 mm 0.20 in5.1 mm
03:19 PM 39.0°F3.9°C 23.4°F-4.8°C 53% 4.0 mph N6.4 kmh N 8.0 mph12.9 kmh 30.18 in1022.0 mb 0.00 in0.0 mm 0.00 in0.0 mm 0.20 in5.1 mm
03:26 PM 38.1°F3.4°C 23.0°F-5.0°C 54% 4.0 mph N6.4 kmh N 9.0 mph14.5 kmh 30.18 in1022.0 mb 0.00 in0.0 mm 0.00 in0.0 mm 0.20 in5.1 mm
03:33 PM 38.7°F3.7°C 23.5°F-4.7°C 54% 4.0 mph N6.4 kmh N 13.0 mph20.9 kmh 30.18 in1022.0 mb 0.00 in0.0 mm 0.00 in0.0 mm 0.20 in5.1 mm
03:40 PM 38.7°F3.7°C 23.5°F-4.7°C 54% 4.0 mph N6.4 kmh N 11.0 mph17.7 kmh 30.18 in1022.0 mb 0.00 in0.0 mm 0.00 in0.0 mm 0.20 in5.1 mm
03:47 PM 38.5°F3.6°C 23.2°F-4.9°C 54% 4.0 mph N6.4 kmh N 13.0 mph20.9 kmh 30.18 in1022.0 mb 0.00 in0.0 mm 0.00 in0.0 mm 0.20 in5.1 mm
03:54 PM 38.1°F3.4°C 23.4°F-4.8°C 55% 4.0 mph N6.4 kmh N 8.0 mph12.9 kmh 30.18 in1022.0 mb 0.00 in0.0 mm 0.00 in0.0 mm 0.20 in5.1 mm
04:01 PM 37.8°F3.2°C 23.0°F-5.0°C 55% 3.0 mph N4.8 kmh N 9.0 mph14.5 kmh 30.18 in1022.0 mb 0.00 in0.0 mm 0.00 in0.0 mm 0.20 in5.1 mm
04:08 PM 37.8°F3.2°C 23.4°F-4.8°C 56% 3.0 mph N4.8 kmh N 9.0 mph14.5 kmh 30.18 in1022.0 mb 0.00 in0.0 mm 0.00 in0.0 mm 0.20 in5.1 mm
04:15 PM 37.8°F3.2°C 23.4°F-4.8°C 56% 3.0 mph N4.8 kmh N 7.0 mph11.3 kmh 30.18 in1022.0 mb 0.00 in0.0 mm 0.00 in0.0 mm 0.20 in5.1 mm
04:22 PM 37.8°F3.2°C 23.9°F-4.5°C 57% 3.0 mph N4.8 kmh N 5.0 mph8.0 kmh 30.18 in1022.0 mb 0.00 in0.0 mm 0.00 in0.0 mm 0.20 in5.1 mm
04:29 PM 37.9°F3.3°C 24.1°F-4.4°C 57% 1.0 mph N1.6 kmh N 4.0 mph6.4 kmh 30.17 in1021.7 mb 0.00 in0.0 mm 0.00 in0.0 mm 0.20 in5.1 mm
04:36 PM 37.8°F3.2°C 23.5°F-4.7°C 56% 1.0 mph N1.6 kmh N 5.0 mph8.0 kmh 30.17 in1021.7 mb 0.00 in0.0 mm 0.00 in0.0 mm 0.20 in5.1 mm
04:43 PM 37.6°F3.1°C 23.7°F-4.6°C 57% 1.0 mph N1.6 kmh N 4.0 mph6.4 kmh 30.18 in1022.0 mb 0.00 in0.0 mm 0.00 in0.0 mm 0.20 in5.1 mm
04:50 PM 37.4°F3.0°C 23.5°F-4.7°C 57% Calm Calm 3.0 mph4.8 kmh 30.18 in1022.0 mb 0.00 in0.0 mm 0.00 in0.0 mm 0.20 in5.1 mm
04:57 PM 37.2°F2.9°C 23.7°F-4.6°C 58% 1.0 mph N1.6 kmh N 4.0 mph6.4 kmh 30.18 in1022.0 mb 0.00 in0.0 mm 0.00 in0.0 mm 0.20 in5.1 mm
05:04 PM 37.0°F2.8°C 23.9°F-4.5°C 59% 1.0 mph N1.6 kmh N 4.0 mph6.4 kmh 30.18 in1022.0 mb 0.00 in0.0 mm 0.00 in0.0 mm 0.20 in5.1 mm
05:11 PM 36.7°F2.6°C 24.1°F-4.4°C 60% 1.0 mph N1.6 kmh N 5.0 mph8.0 kmh 30.18 in1022.0 mb 0.00 in0.0 mm 0.00 in0.0 mm 0.20 in5.1 mm
05:18 PM 36.5°F2.5°C 23.9°F-4.5°C 60% 1.0 mph N1.6 kmh N 7.0 mph11.3 kmh 30.18 in1022.0 mb 0.00 in0.0 mm 0.00 in0.0 mm 0.20 in5.1 mm
05:25 PM 36.3°F2.4°C 24.1°F-4.4°C 61% 1.0 mph N1.6 kmh N 5.0 mph8.0 kmh 30.18 in1022.0 mb 0.00 in0.0 mm 0.00 in0.0 mm 0.20 in5.1 mm
05:32 PM 36.0°F2.2°C 24.3°F-4.3°C 62% Calm Calm 5.0 mph8.0 kmh 30.18 in1022.0 mb 0.00 in0.0 mm 0.00 in0.0 mm 0.20 in5.1 mm
05:39 PM 35.6°F2.0°C 24.3°F-4.3°C 63% Calm Calm 3.0 mph4.8 kmh 30.19 in1022.4 mb 0.00 in0.0 mm 0.00 in0.0 mm 0.20 in5.1 mm
05:46 PM 35.2°F1.8°C 23.9°F-4.5°C 63% 1.0 mph N1.6 kmh N 3.0 mph4.8 kmh 30.19 in1022.4 mb 0.00 in0.0 mm 0.00 in0.0 mm 0.20 in5.1 mm
05:53 PM 35.1°F1.7°C 24.1°F-4.4°C 64% Calm Calm 3.0 mph4.8 kmh 30.20 in1022.7 mb 0.00 in0.0 mm 0.00 in0.0 mm 0.20 in5.1 mm
06:00 PM 35.1°F1.7°C 24.1°F-4.4°C 64% 1.0 mph N1.6 kmh N 5.0 mph8.0 kmh 30.20 in1022.7 mb 0.00 in0.0 mm 0.00 in0.0 mm 0.20 in5.1 mm
06:07 PM 34.9°F1.6°C 23.9°F-4.5°C 64% 1.0 mph N1.6 kmh N 7.0 mph11.3 kmh 30.20 in1022.7 mb 0.00 in0.0 mm 0.00 in0.0 mm 0.20 in5.1 mm
06:14 PM 34.7°F1.5°C 23.7°F-4.6°C 64% 1.0 mph N1.6 kmh N 3.0 mph4.8 kmh 30.19 in1022.4 mb 0.00 in0.0 mm 0.00 in0.0 mm 0.20 in5.1 mm
06:21 PM 34.3°F1.3°C 23.5°F-4.7°C 64% Calm Calm 3.0 mph4.8 kmh 30.20 in1022.7 mb 0.00 in0.0 mm 0.00 in0.0 mm 0.20 in5.1 mm
06:28 PM 34.3°F1.3°C 23.7°F-4.6°C 65% Calm Calm 1.0 mph1.6 kmh 30.20 in1022.7 mb 0.00 in0.0 mm 0.00 in0.0 mm 0.20 in5.1 mm
06:35 PM 34.2°F1.2°C 23.7°F-4.6°C 65% Calm Calm 1.0 mph1.6 kmh 30.20 in1022.7 mb 0.00 in0.0 mm 0.00 in0.0 mm 0.20 in5.1 mm
06:42 PM 33.8°F1.0°C 23.7°F-4.6°C 66% Calm Calm 3.0 mph4.8 kmh 30.19 in1022.4 mb 0.00 in0.0 mm 0.00 in0.0 mm 0.20 in5.1 mm
06:49 PM 33.6°F0.9°C 23.5°F-4.7°C 66% Calm Calm 3.0 mph4.8 kmh 30.19 in1022.4 mb 0.00 in0.0 mm 0.00 in0.0 mm 0.20 in5.1 mm
06:56 PM 33.4°F0.8°C 23.5°F-4.7°C 67% Calm Calm 3.0 mph4.8 kmh 30.19 in1022.4 mb 0.00 in0.0 mm 0.00 in0.0 mm 0.20 in5.1 mm
07:03 PM 32.5°F0.3°C 22.8°F-5.1°C 67% Calm Calm 3.0 mph4.8 kmh 30.19 in1022.4 mb 0.00 in0.0 mm 0.00 in0.0 mm 0.20 in5.1 mm
07:10 PM 32.4°F0.2°C 23.0°F-5.0°C 68% Calm Calm 3.0 mph4.8 kmh 30.19 in1022.4 mb 0.00 in0.0 mm 0.00 in0.0 mm 0.20 in5.1 mm
07:17 PM 32.0°F0.0°C 23.0°F-5.0°C 69% Calm Calm 3.0 mph4.8 kmh 30.19 in1022.4 mb 0.00 in0.0 mm 0.00 in0.0 mm 0.20 in5.1 mm
07:24 PM 31.5°F-0.3°C 22.5°F-5.3°C 69% Calm Calm -- 30.18 in1022.0 mb 0.00 in0.0 mm 0.00 in0.0 mm 0.20 in5.1 mm
07:31 PM 31.6°F-0.2°C 23.0°F-5.0°C 70% Calm Calm -- 30.18 in1022.0 mb 0.00 in0.0 mm 0.00 in0.0 mm 0.20 in5.1 mm
07:38 PM 31.3°F-0.4°C 22.6°F-5.2°C 70% Calm Calm -- 30.18 in1022.0 mb 0.00 in0.0 mm 0.00 in0.0 mm 0.20 in5.1 mm
07:45 PM 31.8°F-0.1°C 23.2°F-4.9°C 70% Calm Calm -- 30.18 in1022.0 mb 0.00 in0.0 mm 0.00 in0.0 mm 0.20 in5.1 mm
07:52 PM 31.5°F-0.3°C 22.8°F-5.1°C 70% Calm Calm -- 30.18 in1022.0 mb 0.00 in0.0 mm 0.00 in0.0 mm 0.20 in5.1 mm
07:59 PM 32.0°F0.0°C 23.4°F-4.8°C 70% Calm Calm -- 30.18 in1022.0 mb 0.00 in0.0 mm 0.00 in0.0 mm 0.20 in5.1 mm
08:06 PM 31.8°F-0.1°C 23.2°F-4.9°C 70% Calm Calm -- 30.18 in1022.0 mb 0.00 in0.0 mm 0.00 in0.0 mm 0.20 in5.1 mm
08:13 PM 31.6°F-0.2°C 23.0°F-5.0°C 70% Calm Calm -- 30.18 in1022.0 mb 0.00 in0.0 mm 0.00 in0.0 mm 0.20 in5.1 mm
08:20 PM 31.6°F-0.2°C 23.0°F-5.0°C 70% Calm Calm -- 30.18 in1022.0 mb 0.00 in0.0 mm 0.00 in0.0 mm 0.20 in5.1 mm
08:27 PM 31.5°F-0.3°C 22.8°F-5.1°C 70% Calm Calm -- 30.18 in1022.0 mb 0.00 in0.0 mm 0.00 in0.0 mm 0.20 in5.1 mm
08:34 PM 31.8°F-0.1°C 23.2°F-4.9°C 70% Calm Calm -- 30.18 in1022.0 mb 0.00 in0.0 mm 0.00 in0.0 mm 0.20 in5.1 mm
08:41 PM 32.2°F0.1°C 23.4°F-4.8°C 70% Calm Calm -- 30.18 in1022.0 mb 0.00 in0.0 mm 0.00 in0.0 mm 0.20 in5.1 mm
08:48 PM 32.0°F0.0°C 23.4°F-4.8°C 70% Calm Calm -- 30.18 in1022.0 mb 0.00 in0.0 mm 0.00 in0.0 mm 0.20 in5.1 mm
08:55 PM 32.2°F0.1°C 23.5°F-4.7°C 70% Calm Calm -- 30.18 in1022.0 mb 0.00 in0.0 mm 0.00 in0.0 mm 0.20 in5.1 mm
09:02 PM 32.5°F0.3°C 23.9°F-4.5°C 70% Calm Calm -- 30.18 in1022.0 mb 0.00 in0.0 mm 0.00 in0.0 mm 0.20 in5.1 mm
09:09 PM 32.5°F0.3°C 23.9°F-4.5°C 70% Calm Calm -- 30.18 in1022.0 mb 0.00 in0.0 mm 0.00 in0.0 mm 0.20 in5.1 mm
09:16 PM 32.5°F0.3°C 23.9°F-4.5°C 70% Calm Calm -- 30.18 in1022.0 mb 0.00 in0.0 mm 0.00 in0.0 mm 0.20 in5.1 mm
09:23 PM 32.9°F0.5°C 24.3°F-4.3°C 70% Calm Calm -- 30.17 in1021.7 mb 0.00 in0.0 mm 0.00 in0.0 mm 0.20 in5.1 mm
09:30 PM 33.4°F0.8°C 24.3°F-4.3°C 69% Calm Calm 3.0 mph4.8 kmh 30.17 in1021.7 mb 0.00 in0.0 mm 0.00 in0.0 mm 0.20 in5.1 mm
09:37 PM 33.1°F0.6°C 24.1°F-4.4°C 69% Calm Calm -- 30.17 in1021.7 mb 0.00 in0.0 mm 0.00 in0.0 mm 0.20 in5.1 mm
09:44 PM 33.3°F0.7°C 24.1°F-4.4°C 69% Calm Calm -- 30.17 in1021.7 mb 0.00 in0.0 mm 0.00 in0.0 mm 0.20 in5.1 mm
09:51 PM 33.1°F0.6°C 23.9°F-4.5°C 69% Calm Calm -- 30.16 in1021.3 mb 0.00 in0.0 mm 0.00 in0.0 mm 0.20 in5.1 mm
09:58 PM 32.7°F0.4°C 24.1°F-4.4°C 70% Calm Calm -- 30.16 in1021.3 mb 0.00 in0.0 mm 0.00 in0.0 mm 0.20 in5.1 mm
10:05 PM 32.9°F0.5°C 24.3°F-4.3°C 70% Calm Calm -- 30.16 in1021.3 mb 0.00 in0.0 mm 0.00 in0.0 mm 0.20 in5.1 mm
10:12 PM 32.7°F0.4°C 24.1°F-4.4°C 70% Calm Calm -- 30.16 in1021.3 mb 0.00 in0.0 mm 0.00 in0.0 mm 0.20 in5.1 mm
10:19 PM 32.5°F0.3°C 23.7°F-4.6°C 70% Calm Calm -- 30.16 in1021.3 mb 0.00 in0.0 mm 0.00 in0.0 mm 0.20 in5.1 mm
10:26 PM 32.5°F0.3°C 23.7°F-4.6°C 70% Calm Calm -- 30.15 in1021.0 mb 0.00 in0.0 mm 0.00 in0.0 mm 0.20 in5.1 mm
10:33 PM 32.2°F0.1°C 23.4°F-4.8°C 70% Calm Calm -- 30.15 in1021.0 mb 0.00 in0.0 mm 0.00 in0.0 mm 0.20 in5.1 mm
10:40 PM 31.8°F-0.1°C 23.5°F-4.7°C 71% Calm Calm -- 30.15 in1021.0 mb 0.00 in0.0 mm 0.00 in0.0 mm 0.20 in5.1 mm
10:47 PM 31.6°F-0.2°C 23.4°F-4.8°C 71% Calm Calm -- 30.15 in1021.0 mb 0.00 in0.0 mm 0.00 in0.0 mm 0.20 in5.1 mm
10:54 PM 31.6°F-0.2°C 23.4°F-4.8°C 71% Calm Calm -- 30.15 in1021.0 mb 0.00 in0.0 mm 0.00 in0.0 mm 0.20 in5.1 mm
11:01 PM 31.8°F-0.1°C 23.5°F-4.7°C 71% Calm Calm -- 30.14 in1020.7 mb 0.00 in0.0 mm 0.00 in0.0 mm 0.14 in3.6 mm
11:08 PM 32.5°F0.3°C 24.3°F-4.3°C 71% Calm Calm 1.0 mph1.6 kmh 30.15 in1021.0 mb 0.00 in0.0 mm 0.00 in0.0 mm 0.14 in3.6 mm
11:15 PM 33.4°F0.8°C 24.8°F-4.0°C 70% Calm Calm 1.0 mph1.6 kmh 30.14 in1020.7 mb 0.00 in0.0 mm 0.00 in0.0 mm 0.14 in3.6 mm
11:22 PM 33.4°F0.8°C 24.6°F-4.1°C 70% Calm Calm -- 30.14 in1020.7 mb 0.00 in0.0 mm 0.00 in0.0 mm 0.14 in3.6 mm
11:29 PM 33.8°F1.0°C 24.6°F-4.1°C 69% Calm Calm 3.0 mph4.8 kmh 30.14 in1020.7 mb 0.00 in0.0 mm 0.00 in0.0 mm 0.14 in3.6 mm
11:36 PM 35.1°F1.7°C 25.2°F-3.8°C 67% 1.0 mph N1.6 kmh N 3.0 mph4.8 kmh 30.14 in1020.7 mb 0.00 in0.0 mm 0.00 in0.0 mm 0.14 in3.6 mm
11:43 PM 35.6°F2.0°C 25.3°F-3.7°C 66% Calm Calm 3.0 mph4.8 kmh 30.13 in1020.3 mb 0.00 in0.0 mm 0.00 in0.0 mm 0.14 in3.6 mm
11:50 PM 36.0°F2.2°C 25.3°F-3.7°C 65% Calm Calm 1.0 mph1.6 kmh 30.13 in1020.3 mb 0.00 in0.0 mm 0.00 in0.0 mm 0.14 in3.6 mm
11:57 PM 36.1°F2.3°C 25.5°F-3.6°C 65% Calm Calm 1.0 mph1.6 kmh 30.13 in1020.3 mb 0.00 in0.0 mm 0.00 in0.0 mm 0.14 in3.6 mm